world map with EFJO marked

EFJO - Airport

This information may not be accurate or current and is not valid for navigation or flight planning. No warranty of fitness for any purpose is made or implied.

flag of Finland

Donate via PayPal

Additional information is available on the NEW Great Circle Mapper

Location
City:  Joensuu, Pohjois-Karjala (Norra Karelen;North Karelia), Finland
ICAO / IATA:EFJO / JOE

Details
Type:Airport (Aerodrome, Airfield)
Use:Public/Civil
Latitude:62°39'46"N (62.662906)
Longitude:29°36'27"E (29.607550)
Datum:WGS 1984
Elevation:398 ft (121 m)
Runways:2
Longest:8202 × 171 ft (2500 × 52 m)

Time
Timezone:UTC+2 (DST+5)
Local Time:

Weather
METAR:EFJO  170150Z AUTO 11006KT 0600 FZFG VV003 M06/M07 Q1030

Related Locations
Nearby:
Farthest:NZTB: 11069 mi / 17814 km
Terra Nova Bay [Mario Zucchelli Station], AQ

Find:

   beyond  
but within

Other Information
Maps:
Sources:

  


 


Great Circle Mapper   Great Circle Mapper
Great Circle Mapper FAQ   Great Circle Mapper FAQ
  Karl's Home Page
KLSē   KLSē Home
   GC on Facebook
Airlines of the World   Airlines of the World
Donate via PayPal


Copyright © 2004-2018, Karl L. Swartz. All rights reserved.
All trademarks mentioned herein belong to their respective owners.

Please see credits for attribution and copyright information.

Karl Swartz <karl@kls2.com>
  Powered by FreeBSD
Valid HTML 4.01!
Labeled with ICRA
hCard Microformat
Geo Microformat